sensor_id;sensor_type;location;lat;lon;timestamp;P1;durP1;ratioP1;P2;durP2;ratioP2
74939;SDS011;63505;45.226;37.908;2023-03-16T00:02:18;23.58;;;12.68;;
74939;SDS011;63505;45.226;37.908;2023-03-16T00:05:09;24.90;;;12.48;;
74939;SDS011;63505;45.226;37.908;2023-03-16T00:07:37;29.02;;;13.55;;
74939;SDS011;63505;45.226;37.908;2023-03-16T00:10:05;26.50;;;13.07;;
74939;SDS011;63505;45.226;37.908;2023-03-16T00:12:31;27.52;;;12.95;;
74939;SDS011;63505;45.226;37.908;2023-03-16T00:14:59;23.95;;;12.23;;
74939;SDS011;63505;45.226;37.908;2023-03-16T00:17:28;23.08;;;11.63;;
74939;SDS011;63505;45.226;37.908;2023-03-16T00:19:54;22.73;;;10.55;;
74939;SDS011;63505;45.226;37.908;2023-03-16T00:22:22;22.83;;;10.82;;
74939;SDS011;63505;45.226;37.908;2023-03-16T00:24:50;20.35;;;10.85;;
74939;SDS011;63505;45.226;37.908;2023-03-16T00:27:17;19.10;;;10.52;;
74939;SDS011;63505;45.226;37.908;2023-03-16T00:29:44;28.45;;;12.27;;
74939;SDS011;63505;45.226;37.908;2023-03-16T00:32:18;29.95;;;13.55;;
74939;SDS011;63505;45.226;37.908;2023-03-16T00:34:47;23.42;;;11.10;;
74939;SDS011;63505;45.226;37.908;2023-03-16T00:37:13;30.05;;;11.25;;
74939;SDS011;63505;45.226;37.908;2023-03-16T00:39:41;24.02;;;12.43;;
74939;SDS011;63505;45.226;37.908;2023-03-16T00:42:11;26.70;;;13.52;;
74939;SDS011;63505;45.226;37.908;2023-03-16T00:44:39;25.30;;;11.63;;
74939;SDS011;63505;45.226;37.908;2023-03-16T00:47:08;26.15;;;13.73;;
74939;SDS011;63505;45.226;37.908;2023-03-16T00:49:38;25.92;;;13.18;;
74939;SDS011;63505;45.226;37.908;2023-03-16T00:52:07;25.58;;;11.60;;
74939;SDS011;63505;45.226;37.908;2023-03-16T00:54:39;25.13;;;11.63;;
74939;SDS011;63505;45.226;37.908;2023-03-16T00:57:07;21.52;;;12.07;;
74939;SDS011;63505;45.226;37.908;2023-03-16T00:59:34;16.02;;;9.07;;
74939;SDS011;63505;45.226;37.908;2023-03-16T01:02:05;26.58;;;13.50;;
74939;SDS011;63505;45.226;37.908;2023-03-16T01:04:32;26.77;;;13.70;;
74939;SDS011;63505;45.226;37.908;2023-03-16T01:07:00;25.33;;;13.18;;
74939;SDS011;63505;45.226;37.908;2023-03-16T01:09:30;25.63;;;12.60;;
74939;SDS011;63505;45.226;37.908;2023-03-16T01:12:08;24.48;;;12.23;;
74939;SDS011;63505;45.226;37.908;2023-03-16T01:14:36;25.95;;;12.75;;
74939;SDS011;63505;45.226;37.908;2023-03-16T01:17:04;22.15;;;11.35;;
74939;SDS011;63505;45.226;37.908;2023-03-16T01:19:32;23.25;;;11.95;;
74939;SDS011;63505;45.226;37.908;2023-03-16T01:22:00;27.42;;;12.43;;
74939;SDS011;63505;45.226;37.908;2023-03-16T01:24:28;26.55;;;12.30;;
74939;SDS011;63505;45.226;37.908;2023-03-16T01:26:54;30.80;;;12.07;;
74939;SDS011;63505;45.226;37.908;2023-03-16T01:29:20;19.88;;;11.32;;
74939;SDS011;63505;45.226;37.908;2023-03-16T01:31:48;27.02;;;12.30;;
74939;SDS011;63505;45.226;37.908;2023-03-16T01:34:15;25.95;;;13.73;;
74939;SDS011;63505;45.226;37.908;2023-03-16T01:36:43;24.60;;;12.15;;
74939;SDS011;63505;45.226;37.908;2023-03-16T01:39:12;20.90;;;11.60;;
74939;SDS011;63505;45.226;37.908;2023-03-16T01:41:42;25.17;;;12.38;;
74939;SDS011;63505;45.226;37.908;2023-03-16T01:44:13;24.50;;;11.35;;
74939;SDS011;63505;45.226;37.908;2023-03-16T01:46:42;25.52;;;11.32;;
74939;SDS011;63505;45.226;37.908;2023-03-16T01:49:10;25.73;;;13.15;;
74939;SDS011;63505;45.226;37.908;2023-03-16T01:51:51;24.00;;;12.57;;
74939;SDS011;63505;45.226;37.908;2023-03-16T01:57:10;26.05;;;10.98;;
74939;SDS011;63505;45.226;37.908;2023-03-16T01:59:45;29.92;;;12.65;;
74939;SDS011;63505;45.226;37.908;2023-03-16T02:02:13;21.77;;;10.40;;
74939;SDS011;63505;45.226;37.908;2023-03-16T02:07:27;20.27;;;10.93;;
74939;SDS011;63505;45.226;37.908;2023-03-16T02:12:23;25.17;;;12.20;;
74939;SDS011;63505;45.226;37.908;2023-03-16T02:14:52;22.33;;;10.35;;
74939;SDS011;63505;45.226;37.908;2023-03-16T02:17:28;29.23;;;11.93;;
74939;SDS011;63505;45.226;37.908;2023-03-16T02:22:46;21.80;;;12.15;;
74939;SDS011;63505;45.226;37.908;2023-03-16T02:25:14;26.60;;;13.32;;
74939;SDS011;63505;45.226;37.908;2023-03-16T02:30:26;30.48;;;10.23;;
74939;SDS011;63505;45.226;37.908;2023-03-16T02:32:58;25.42;;;12.63;;
74939;SDS011;63505;45.226;37.908;2023-03-16T02:35:26;20.63;;;12.02;;
74939;SDS011;63505;45.226;37.908;2023-03-16T02:37:52;25.85;;;12.20;;
74939;SDS011;63505;45.226;37.908;2023-03-16T02:42:59;21.60;;;12.85;;
74939;SDS011;63505;45.226;37.908;2023-03-16T02:45:53;25.90;;;12.32;;
74939;SDS011;63505;45.226;37.908;2023-03-16T02:48:29;29.88;;;13.90;;
74939;SDS011;63505;45.226;37.908;2023-03-16T02:51:00;36.13;;;13.88;;
74939;SDS011;63505;45.226;37.908;2023-03-16T02:53:26;18.90;;;10.77;;
74939;SDS011;63505;45.226;37.908;2023-03-16T02:55:54;15.23;;;7.95;;
74939;SDS011;63505;45.226;37.908;2023-03-16T02:58:20;23.20;;;10.95;;
74939;SDS011;63505;45.226;37.908;2023-03-16T03:00:46;27.73;;;12.77;;
74939;SDS011;63505;45.226;37.908;2023-03-16T03:03:14;38.28;;;13.95;;
74939;SDS011;63505;45.226;37.908;2023-03-16T03:05:40;17.15;;;9.80;;
74939;SDS011;63505;45.226;37.908;2023-03-16T03:08:06;16.67;;;10.25;;
74939;SDS011;63505;45.226;37.908;2023-03-16T03:10:33;27.02;;;13.07;;
74939;SDS011;63505;45.226;37.908;2023-03-16T03:12:59;28.67;;;12.65;;
74939;SDS011;63505;45.226;37.908;2023-03-16T03:15:24;21.52;;;8.40;;
74939;SDS011;63505;45.226;37.908;2023-03-16T03:20:28;21.63;;;11.18;;
74939;SDS011;63505;45.226;37.908;2023-03-16T03:22:54;21.13;;;11.55;;
74939;SDS011;63505;45.226;37.908;2023-03-16T03:25:20;21.50;;;11.60;;
74939;SDS011;63505;45.226;37.908;2023-03-16T03:27:47;33.72;;;13.75;;
74939;SDS011;63505;45.226;37.908;2023-03-16T03:30:19;25.88;;;10.80;;
74939;SDS011;63505;45.226;37.908;2023-03-16T03:32:47;31.30;;;13.05;;
74939;SDS011;63505;45.226;37.908;2023-03-16T03:35:14;20.58;;;8.30;;
74939;SDS011;63505;45.226;37.908;2023-03-16T03:37:41;29.92;;;14.55;;
74939;SDS011;63505;45.226;37.908;2023-03-16T03:40:10;20.55;;;11.00;;
74939;SDS011;63505;45.226;37.908;2023-03-16T03:42:39;27.88;;;13.50;;
74939;SDS011;63505;45.226;37.908;2023-03-16T03:45:06;24.08;;;10.80;;
74939;SDS011;63505;45.226;37.908;2023-03-16T03:47:34;35.40;;;15.82;;
74939;SDS011;63505;45.226;37.908;2023-03-16T03:50:05;24.80;;;11.18;;
74939;SDS011;63505;45.226;37.908;2023-03-16T03:52:41;28.05;;;12.52;;
74939;SDS011;63505;45.226;37.908;2023-03-16T03:55:08;27.38;;;13.65;;
74939;SDS011;63505;45.226;37.908;2023-03-16T03:57:35;44.78;;;22.77;;
74939;SDS011;63505;45.226;37.908;2023-03-16T04:00:01;27.27;;;12.52;;
74939;SDS011;63505;45.226;37.908;2023-03-16T04:02:38;26.67;;;12.82;;
74939;SDS011;63505;45.226;37.908;2023-03-16T04:05:10;15.38;;;8.18;;
74939;SDS011;63505;45.226;37.908;2023-03-16T04:07:36;19.40;;;11.43;;
74939;SDS011;63505;45.226;37.908;2023-03-16T04:10:06;22.45;;;12.02;;
74939;SDS011;63505;45.226;37.908;2023-03-16T04:12:37;31.83;;;14.20;;
74939;SDS011;63505;45.226;37.908;2023-03-16T04:15:04;27.45;;;12.40;;
74939;SDS011;63505;45.226;37.908;2023-03-16T04:17:39;39.33;;;18.17;;
74939;SDS011;63505;45.226;37.908;2023-03-16T04:20:09;32.05;;;15.93;;
74939;SDS011;63505;45.226;37.908;2023-03-16T04:22:41;28.58;;;13.73;;
74939;SDS011;63505;45.226;37.908;2023-03-16T04:25:11;27.00;;;12.75;;
74939;SDS011;63505;45.226;37.908;2023-03-16T04:27:39;29.38;;;12.70;;
74939;SDS011;63505;45.226;37.908;2023-03-16T04:30:07;22.73;;;11.57;;
74939;SDS011;63505;45.226;37.908;2023-03-16T04:32:41;26.27;;;12.13;;
74939;SDS011;63505;45.226;37.908;2023-03-16T04:35:08;22.70;;;12.50;;
74939;SDS011;63505;45.226;37.908;2023-03-16T04:37:45;28.27;;;12.27;;
74939;SDS011;63505;45.226;37.908;2023-03-16T04:40:12;22.02;;;11.00;;
74939;SDS011;63505;45.226;37.908;2023-03-16T04:42:44;19.30;;;9.32;;
74939;SDS011;63505;45.226;37.908;2023-03-16T04:45:15;21.73;;;11.13;;
74939;SDS011;63505;45.226;37.908;2023-03-16T04:47:45;10.32;;;5.68;;
74939;SDS011;63505;45.226;37.908;2023-03-16T04:50:12;30.55;;;10.73;;
74939;SDS011;63505;45.226;37.908;2023-03-16T04:52:40;23.48;;;11.43;;
74939;SDS011;63505;45.226;37.908;2023-03-16T04:55:06;24.83;;;7.75;;
74939;SDS011;63505;45.226;37.908;2023-03-16T04:57:34;23.02;;;6.90;;
74939;SDS011;63505;45.226;37.908;2023-03-16T05:00:01;16.40;;;9.52;;
74939;SDS011;63505;45.226;37.908;2023-03-16T05:02:38;23.40;;;11.88;;
74939;SDS011;63505;45.226;37.908;2023-03-16T05:05:04;23.23;;;9.50;;
74939;SDS011;63505;45.226;37.908;2023-03-16T05:07:31;13.15;;;6.80;;
74939;SDS011;63505;45.226;37.908;2023-03-16T05:09:57;26.10;;;12.38;;
74939;SDS011;63505;45.226;37.908;2023-03-16T05:12:23;22.27;;;10.60;;
74939;SDS011;63505;45.226;37.908;2023-03-16T05:14:54;27.25;;;12.48;;
74939;SDS011;63505;45.226;37.908;2023-03-16T05:17:33;24.92;;;11.20;;
74939;SDS011;63505;45.226;37.908;2023-03-16T05:19:59;22.15;;;11.52;;
74939;SDS011;63505;45.226;37.908;2023-03-16T05:22:26;21.55;;;8.60;;
74939;SDS011;63505;45.226;37.908;2023-03-16T05:25:12;21.92;;;11.65;;
74939;SDS011;63505;45.226;37.908;2023-03-16T05:27:42;30.35;;;13.35;;
74939;SDS011;63505;45.226;37.908;2023-03-16T05:30:12;19.92;;;10.90;;
74939;SDS011;63505;45.226;37.908;2023-03-16T05:32:41;33.25;;;14.45;;
74939;SDS011;63505;45.226;37.908;2023-03-16T05:35:07;35.72;;;14.32;;
74939;SDS011;63505;45.226;37.908;2023-03-16T05:37:38;24.05;;;12.98;;
74939;SDS011;63505;45.226;37.908;2023-03-16T05:40:10;19.95;;;9.30;;
74939;SDS011;63505;45.226;37.908;2023-03-16T05:42:54;22.95;;;12.05;;
74939;SDS011;63505;45.226;37.908;2023-03-16T05:45:22;28.10;;;14.93;;
74939;SDS011;63505;45.226;37.908;2023-03-16T05:48:01;25.00;;;12.63;;
74939;SDS011;63505;45.226;37.908;2023-03-16T05:50:27;30.40;;;14.07;;
74939;SDS011;63505;45.226;37.908;2023-03-16T05:52:53;21.80;;;11.20;;
74939;SDS011;63505;45.226;37.908;2023-03-16T05:55:22;17.10;;;9.13;;
74939;SDS011;63505;45.226;37.908;2023-03-16T05:57:56;28.90;;;12.98;;
74939;SDS011;63505;45.226;37.908;2023-03-16T06:00:22;22.30;;;9.88;;
74939;SDS011;63505;45.226;37.908;2023-03-16T06:02:58;17.55;;;8.07;;
74939;SDS011;63505;45.226;37.908;2023-03-16T06:05:29;29.55;;;13.68;;
74939;SDS011;63505;45.226;37.908;2023-03-16T06:07:56;26.05;;;13.68;;
74939;SDS011;63505;45.226;37.908;2023-03-16T06:10:23;22.45;;;11.13;;
74939;SDS011;63505;45.226;37.908;2023-03-16T06:12:51;27.52;;;12.77;;
74939;SDS011;63505;45.226;37.908;2023-03-16T06:15:19;27.95;;;12.32;;
74939;SDS011;63505;45.226;37.908;2023-03-16T06:17:50;29.15;;;12.98;;
74939;SDS011;63505;45.226;37.908;2023-03-16T06:20:16;27.73;;;13.40;;
74939;SDS011;63505;45.226;37.908;2023-03-16T06:22:43;35.45;;;15.82;;
74939;SDS011;63505;45.226;37.908;2023-03-16T06:25:10;27.80;;;15.13;;
74939;SDS011;63505;45.226;37.908;2023-03-16T06:27:39;19.20;;;10.95;;
74939;SDS011;63505;45.226;37.908;2023-03-16T06:30:12;21.75;;;13.07;;
74939;SDS011;63505;45.226;37.908;2023-03-16T06:32:39;26.60;;;11.63;;
74939;SDS011;63505;45.226;37.908;2023-03-16T06:35:09;28.83;;;13.25;;
74939;SDS011;63505;45.226;37.908;2023-03-16T06:37:40;23.80;;;12.13;;
74939;SDS011;63505;45.226;37.908;2023-03-16T06:40:26;28.42;;;15.27;;
74939;SDS011;63505;45.226;37.908;2023-03-16T06:42:52;27.05;;;14.68;;
74939;SDS011;63505;45.226;37.908;2023-03-16T06:45:19;27.98;;;15.98;;
74939;SDS011;63505;45.226;37.908;2023-03-16T06:47:47;25.63;;;14.98;;
74939;SDS011;63505;45.226;37.908;2023-03-16T06:50:14;33.53;;;15.90;;
74939;SDS011;63505;45.226;37.908;2023-03-16T06:52:40;31.75;;;15.82;;
74939;SDS011;63505;45.226;37.908;2023-03-16T06:55:06;28.90;;;16.42;;
74939;SDS011;63505;45.226;37.908;2023-03-16T06:57:35;35.35;;;16.33;;
74939;SDS011;63505;45.226;37.908;2023-03-16T07:00:01;33.50;;;16.08;;
74939;SDS011;63505;45.226;37.908;2023-03-16T07:02:28;28.90;;;15.95;;
74939;SDS011;63505;45.226;37.908;2023-03-16T07:04:54;28.92;;;16.80;;
74939;SDS011;63505;45.226;37.908;2023-03-16T07:07:20;32.72;;;16.02;;
74939;SDS011;63505;45.226;37.908;2023-03-16T07:09:46;32.22;;;17.00;;
74939;SDS011;63505;45.226;37.908;2023-03-16T07:12:12;38.08;;;16.60;;
74939;SDS011;63505;45.226;37.908;2023-03-16T07:14:38;35.60;;;18.63;;
74939;SDS011;63505;45.226;37.908;2023-03-16T07:17:05;30.17;;;16.35;;
74939;SDS011;63505;45.226;37.908;2023-03-16T07:19:31;33.80;;;17.02;;
74939;SDS011;63505;45.226;37.908;2023-03-16T07:22:00;28.63;;;16.05;;
74939;SDS011;63505;45.226;37.908;2023-03-16T07:24:30;34.45;;;16.60;;
74939;SDS011;63505;45.226;37.908;2023-03-16T07:26:57;31.05;;;16.85;;
74939;SDS011;63505;45.226;37.908;2023-03-16T07:29:27;36.83;;;17.70;;
74939;SDS011;63505;45.226;37.908;2023-03-16T07:31:54;27.48;;;15.75;;
74939;SDS011;63505;45.226;37.908;2023-03-16T07:34:26;39.33;;;18.20;;
74939;SDS011;63505;45.226;37.908;2023-03-16T07:36:55;43.42;;;17.92;;
74939;SDS011;63505;45.226;37.908;2023-03-16T07:39:24;33.58;;;16.60;;
74939;SDS011;63505;45.226;37.908;2023-03-16T07:41:55;44.83;;;19.08;;
74939;SDS011;63505;45.226;37.908;2023-03-16T07:44:36;37.35;;;19.25;;
74939;SDS011;63505;45.226;37.908;2023-03-16T07:47:02;34.97;;;17.33;;
74939;SDS011;63505;45.226;37.908;2023-03-16T07:49:30;34.38;;;17.30;;
74939;SDS011;63505;45.226;37.908;2023-03-16T07:51:58;37.10;;;17.15;;
74939;SDS011;63505;45.226;37.908;2023-03-16T07:54:31;34.47;;;18.33;;
74939;SDS011;63505;45.226;37.908;2023-03-16T07:56:58;31.92;;;16.10;;
74939;SDS011;63505;45.226;37.908;2023-03-16T07:59:40;29.77;;;17.45;;
74939;SDS011;63505;45.226;37.908;2023-03-16T08:02:14;34.20;;;17.15;;
74939;SDS011;63505;45.226;37.908;2023-03-16T08:07:10;33.63;;;17.23;;
74939;SDS011;63505;45.226;37.908;2023-03-16T08:10:00;34.45;;;16.40;;
74939;SDS011;63505;45.226;37.908;2023-03-16T08:12:32;29.00;;;16.58;;
74939;SDS011;63505;45.226;37.908;2023-03-16T08:14:58;32.63;;;16.02;;
74939;SDS011;63505;45.226;37.908;2023-03-16T08:17:28;32.10;;;15.73;;
74939;SDS011;63505;45.226;37.908;2023-03-16T08:19:55;34.90;;;15.80;;
74939;SDS011;63505;45.226;37.908;2023-03-16T08:22:22;33.05;;;16.65;;
74939;SDS011;63505;45.226;37.908;2023-03-16T08:24:48;30.33;;;15.27;;
74939;SDS011;63505;45.226;37.908;2023-03-16T08:27:16;29.63;;;16.25;;
74939;SDS011;63505;45.226;37.908;2023-03-16T08:29:50;33.15;;;16.27;;
74939;SDS011;63505;45.226;37.908;2023-03-16T08:32:18;33.38;;;15.18;;
74939;SDS011;63505;45.226;37.908;2023-03-16T08:34:46;31.75;;;15.73;;
74939;SDS011;63505;45.226;37.908;2023-03-16T08:37:13;27.27;;;16.35;;
74939;SDS011;63505;45.226;37.908;2023-03-16T08:39:39;39.33;;;17.52;;
74939;SDS011;63505;45.226;37.908;2023-03-16T08:42:09;27.10;;;16.35;;
74939;SDS011;63505;45.226;37.908;2023-03-16T08:44:41;27.95;;;16.20;;
74939;SDS011;63505;45.226;37.908;2023-03-16T08:47:09;26.48;;;15.23;;
74939;SDS011;63505;45.226;37.908;2023-03-16T08:49:36;33.47;;;16.05;;
74939;SDS011;63505;45.226;37.908;2023-03-16T08:52:12;36.25;;;16.75;;
74939;SDS011;63505;45.226;37.908;2023-03-16T08:54:38;30.02;;;16.55;;
74939;SDS011;63505;45.226;37.908;2023-03-16T08:57:05;27.85;;;16.17;;
74939;SDS011;63505;45.226;37.908;2023-03-16T08:59:32;27.33;;;14.27;;
74939;SDS011;63505;45.226;37.908;2023-03-16T09:01:57;24.55;;;13.80;;
74939;SDS011;63505;45.226;37.908;2023-03-16T09:04:24;24.48;;;14.80;;
74939;SDS011;63505;45.226;37.908;2023-03-16T09:06:52;27.10;;;14.73;;
74939;SDS011;63505;45.226;37.908;2023-03-16T09:09:18;25.33;;;14.32;;
74939;SDS011;63505;45.226;37.908;2023-03-16T09:11:44;32.25;;;15.80;;
74939;SDS011;63505;45.226;37.908;2023-03-16T09:14:11;24.25;;;14.23;;
74939;SDS011;63505;45.226;37.908;2023-03-16T09:16:38;25.73;;;13.65;;
74939;SDS011;63505;45.226;37.908;2023-03-16T09:19:04;27.55;;;14.65;;
74939;SDS011;63505;45.226;37.908;2023-03-16T09:21:31;22.05;;;13.32;;
74939;SDS011;63505;45.226;37.908;2023-03-16T09:24:00;23.13;;;13.45;;
74939;SDS011;63505;45.226;37.908;2023-03-16T09:26:26;24.42;;;12.57;;
74939;SDS011;63505;45.226;37.908;2023-03-16T09:28:52;23.98;;;13.60;;
74939;SDS011;63505;45.226;37.908;2023-03-16T09:31:19;19.65;;;12.52;;
74939;SDS011;63505;45.226;37.908;2023-03-16T09:33:45;19.42;;;13.32;;
74939;SDS011;63505;45.226;37.908;2023-03-16T09:36:12;24.35;;;13.95;;
74939;SDS011;63505;45.226;37.908;2023-03-16T09:38:39;25.15;;;12.90;;
74939;SDS011;63505;45.226;37.908;2023-03-16T09:46:48;20.35;;;12.55;;
74939;SDS011;63505;45.226;37.908;2023-03-16T09:49:19;22.17;;;12.65;;
74939;SDS011;63505;45.226;37.908;2023-03-16T09:57:25;21.90;;;13.73;;
74939;SDS011;63505;45.226;37.908;2023-03-16T09:59:57;23.98;;;13.43;;
74939;SDS011;63505;45.226;37.908;2023-03-16T10:05:16;22.60;;;13.18;;
74939;SDS011;63505;45.226;37.908;2023-03-16T10:13:15;21.02;;;13.50;;
74939;SDS011;63505;45.226;37.908;2023-03-16T10:15:55;21.92;;;13.32;;
74939;SDS011;63505;45.226;37.908;2023-03-16T10:18:31;21.02;;;13.10;;
74939;SDS011;63505;45.226;37.908;2023-03-16T10:21:03;20.95;;;12.88;;
74939;SDS011;63505;45.226;37.908;2023-03-16T10:23:30;20.27;;;12.13;;
74939;SDS011;63505;45.226;37.908;2023-03-16T10:25:59;28.02;;;14.68;;
74939;SDS011;63505;45.226;37.908;2023-03-16T10:31:01;20.20;;;12.38;;
74939;SDS011;63505;45.226;37.908;2023-03-16T10:33:29;22.67;;;13.80;;
74939;SDS011;63505;45.226;37.908;2023-03-16T10:38:52;21.80;;;14.05;;
74939;SDS011;63505;45.226;37.908;2023-03-16T10:46:39;21.40;;;13.25;;
74939;SDS011;63505;45.226;37.908;2023-03-16T10:49:25;23.90;;;14.55;;
74939;SDS011;63505;45.226;37.908;2023-03-16T10:52:05;20.17;;;14.00;;
74939;SDS011;63505;45.226;37.908;2023-03-16T10:54:45;22.92;;;14.30;;
74939;SDS011;63505;45.226;37.908;2023-03-16T10:59:59;21.40;;;13.50;;
74939;SDS011;63505;45.226;37.908;2023-03-16T11:02:32;21.98;;;13.05;;
74939;SDS011;63505;45.226;37.908;2023-03-16T11:05:44;24.45;;;13.27;;
74939;SDS011;63505;45.226;37.908;2023-03-16T11:11:06;20.60;;;12.65;;
74939;SDS011;63505;45.226;37.908;2023-03-16T11:13:36;21.08;;;12.45;;
74939;SDS011;63505;45.226;37.908;2023-03-16T11:19:02;19.05;;;13.05;;
74939;SDS011;63505;45.226;37.908;2023-03-16T11:24:25;17.75;;;12.20;;
74939;SDS011;63505;45.226;37.908;2023-03-16T11:27:08;20.80;;;12.43;;
74939;SDS011;63505;45.226;37.908;2023-03-16T11:30:09;17.25;;;10.93;;
74939;SDS011;63505;45.226;37.908;2023-03-16T11:32:44;19.20;;;11.20;;
74939;SDS011;63505;45.226;37.908;2023-03-16T11:40:47;17.00;;;10.40;;
74939;SDS011;63505;45.226;37.908;2023-03-16T11:57:22;12.38;;;6.78;;
74939;SDS011;63505;45.226;37.908;2023-03-16T12:11:02;15.45;;;8.93;;
74939;SDS011;63505;45.226;37.908;2023-03-16T12:16:47;16.80;;;11.43;;
74939;SDS011;63505;45.226;37.908;2023-03-16T12:22:20;27.23;;;16.88;;
74939;SDS011;63505;45.226;37.908;2023-03-16T12:25:10;23.42;;;17.33;;
74939;SDS011;63505;45.226;37.908;2023-03-16T12:27:53;19.27;;;10.98;;
74939;SDS011;63505;45.226;37.908;2023-03-16T12:30:38;20.98;;;12.85;;
74939;SDS011;63505;45.226;37.908;2023-03-16T12:39:01;21.02;;;12.52;;
74939;SDS011;63505;45.226;37.908;2023-03-16T12:41:40;19.15;;;11.45;;
74939;SDS011;63505;45.226;37.908;2023-03-16T12:49:43;22.10;;;11.80;;
74939;SDS011;63505;45.226;37.908;2023-03-16T12:52:11;20.00;;;11.02;;
74939;SDS011;63505;45.226;37.908;2023-03-16T12:57:45;16.58;;;10.15;;
74939;SDS011;63505;45.226;37.908;2023-03-16T13:00:13;15.70;;;9.38;;
74939;SDS011;63505;45.226;37.908;2023-03-16T13:02:41;16.60;;;10.02;;
74939;SDS011;63505;45.226;37.908;2023-03-16T13:05:12;16.38;;;9.02;;
74939;SDS011;63505;45.226;37.908;2023-03-16T13:07:47;16.20;;;8.95;;
74939;SDS011;63505;45.226;37.908;2023-03-16T13:10:16;15.93;;;9.95;;
74939;SDS011;63505;45.226;37.908;2023-03-16T13:12:45;18.13;;;8.90;;
74939;SDS011;63505;45.226;37.908;2023-03-16T13:18:01;17.42;;;10.35;;
74939;SDS011;63505;45.226;37.908;2023-03-16T13:20:47;13.65;;;8.80;;
74939;SDS011;63505;45.226;37.908;2023-03-16T13:26:17;14.35;;;8.38;;
74939;SDS011;63505;45.226;37.908;2023-03-16T13:28:51;19.35;;;11.15;;
74939;SDS011;63505;45.226;37.908;2023-03-16T13:34:00;21.67;;;11.10;;
74939;SDS011;63505;45.226;37.908;2023-03-16T13:36:27;18.80;;;9.93;;
74939;SDS011;63505;45.226;37.908;2023-03-16T13:38:56;16.67;;;9.18;;
74939;SDS011;63505;45.226;37.908;2023-03-16T13:41:28;19.67;;;10.60;;
74939;SDS011;63505;45.226;37.908;2023-03-16T13:43:54;18.85;;;10.85;;
74939;SDS011;63505;45.226;37.908;2023-03-16T13:46:21;17.05;;;9.10;;
74939;SDS011;63505;45.226;37.908;2023-03-16T13:48:55;22.77;;;9.80;;
74939;SDS011;63505;45.226;37.908;2023-03-16T13:51:22;14.90;;;7.95;;
74939;SDS011;63505;45.226;37.908;2023-03-16T13:53:48;19.00;;;8.93;;
74939;SDS011;63505;45.226;37.908;2023-03-16T13:56:21;13.98;;;7.72;;
74939;SDS011;63505;45.226;37.908;2023-03-16T13:58:51;19.58;;;8.48;;
74939;SDS011;63505;45.226;37.908;2023-03-16T14:06:30;24.38;;;8.13;;
74939;SDS011;63505;45.226;37.908;2023-03-16T14:09:00;14.25;;;7.10;;
74939;SDS011;63505;45.226;37.908;2023-03-16T14:11:29;14.60;;;8.25;;
74939;SDS011;63505;45.226;37.908;2023-03-16T14:13:56;14.57;;;8.05;;
74939;SDS011;63505;45.226;37.908;2023-03-16T14:16:24;15.80;;;8.98;;
74939;SDS011;63505;45.226;37.908;2023-03-16T14:21:31;19.13;;;7.57;;
74939;SDS011;63505;45.226;37.908;2023-03-16T14:24:05;12.85;;;7.60;;
74939;SDS011;63505;45.226;37.908;2023-03-16T14:26:38;12.90;;;8.35;;
74939;SDS011;63505;45.226;37.908;2023-03-16T14:31:56;15.75;;;9.80;;
74939;SDS011;63505;45.226;37.908;2023-03-16T14:34:37;15.15;;;8.70;;
74939;SDS011;63505;45.226;37.908;2023-03-16T14:37:10;15.38;;;8.23;;
74939;SDS011;63505;45.226;37.908;2023-03-16T14:39:38;18.05;;;9.10;;
74939;SDS011;63505;45.226;37.908;2023-03-16T14:42:05;22.65;;;10.52;;
74939;SDS011;63505;45.226;37.908;2023-03-16T14:44:44;19.58;;;9.98;;
74939;SDS011;63505;45.226;37.908;2023-03-16T14:47:14;21.02;;;11.13;;
74939;SDS011;63505;45.226;37.908;2023-03-16T14:49:47;22.38;;;11.98;;
74939;SDS011;63505;45.226;37.908;2023-03-16T14:52:16;22.00;;;14.15;;
74939;SDS011;63505;45.226;37.908;2023-03-16T14:54:52;24.58;;;14.80;;
74939;SDS011;63505;45.226;37.908;2023-03-16T14:57:19;23.98;;;14.13;;
74939;SDS011;63505;45.226;37.908;2023-03-16T14:59:46;30.40;;;15.75;;
74939;SDS011;63505;45.226;37.908;2023-03-16T15:02:14;34.55;;;17.52;;
74939;SDS011;63505;45.226;37.908;2023-03-16T15:04:43;37.38;;;20.48;;
74939;SDS011;63505;45.226;37.908;2023-03-16T15:07:21;39.55;;;20.58;;
74939;SDS011;63505;45.226;37.908;2023-03-16T15:12:51;35.67;;;19.10;;
74939;SDS011;63505;45.226;37.908;2023-03-16T15:15:28;31.58;;;15.95;;
74939;SDS011;63505;45.226;37.908;2023-03-16T15:17:55;28.60;;;14.95;;
74939;SDS011;63505;45.226;37.908;2023-03-16T15:20:22;29.30;;;15.57;;
74939;SDS011;63505;45.226;37.908;2023-03-16T15:22:54;30.50;;;15.63;;
74939;SDS011;63505;45.226;37.908;2023-03-16T15:28:05;22.52;;;13.27;;
74939;SDS011;63505;45.226;37.908;2023-03-16T15:30:36;20.83;;;12.93;;
74939;SDS011;63505;45.226;37.908;2023-03-16T15:33:03;24.13;;;12.60;;
74939;SDS011;63505;45.226;37.908;2023-03-16T15:35:29;21.00;;;11.93;;
74939;SDS011;63505;45.226;37.908;2023-03-16T15:37:55;25.55;;;13.70;;
74939;SDS011;63505;45.226;37.908;2023-03-16T15:40:22;28.52;;;12.68;;
74939;SDS011;63505;45.226;37.908;2023-03-16T15:42:50;22.77;;;12.68;;
74939;SDS011;63505;45.226;37.908;2023-03-16T15:45:17;22.95;;;12.38;;
74939;SDS011;63505;45.226;37.908;2023-03-16T15:47:46;26.23;;;12.98;;
74939;SDS011;63505;45.226;37.908;2023-03-16T15:50:13;25.55;;;11.30;;
74939;SDS011;63505;45.226;37.908;2023-03-16T15:52:41;21.88;;;12.60;;
74939;SDS011;63505;45.226;37.908;2023-03-16T15:55:14;21.85;;;13.10;;
74939;SDS011;63505;45.226;37.908;2023-03-16T15:57:43;24.77;;;12.93;;
74939;SDS011;63505;45.226;37.908;2023-03-16T16:00:15;30.63;;;14.82;;
74939;SDS011;63505;45.226;37.908;2023-03-16T16:02:52;21.45;;;12.07;;
74939;SDS011;63505;45.226;37.908;2023-03-16T16:05:18;27.20;;;12.30;;
74939;SDS011;63505;45.226;37.908;2023-03-16T16:07:44;30.20;;;13.18;;
74939;SDS011;63505;45.226;37.908;2023-03-16T16:10:11;21.38;;;11.70;;
74939;SDS011;63505;45.226;37.908;2023-03-16T16:12:38;23.88;;;12.48;;
74939;SDS011;63505;45.226;37.908;2023-03-16T16:15:47;25.17;;;11.90;;
74939;SDS011;63505;45.226;37.908;2023-03-16T16:17:58;61.60;;;26.92;;
74939;SDS011;63505;45.226;37.908;2023-03-16T16:20:30;25.83;;;13.98;;
74939;SDS011;63505;45.226;37.908;2023-03-16T16:22:57;25.65;;;11.65;;
74939;SDS011;63505;45.226;37.908;2023-03-16T16:25:31;27.38;;;13.50;;
74939;SDS011;63505;45.226;37.908;2023-03-16T16:28:01;51.88;;;20.17;;
74939;SDS011;63505;45.226;37.908;2023-03-16T16:32:56;25.40;;;10.88;;
74939;SDS011;63505;45.226;37.908;2023-03-16T16:35:26;24.48;;;11.82;;
74939;SDS011;63505;45.226;37.908;2023-03-16T16:37:52;26.52;;;11.75;;
74939;SDS011;63505;45.226;37.908;2023-03-16T16:40:20;26.75;;;11.85;;
74939;SDS011;63505;45.226;37.908;2023-03-16T16:42:48;26.45;;;11.73;;
74939;SDS011;63505;45.226;37.908;2023-03-16T16:45:19;25.35;;;12.35;;
74939;SDS011;63505;45.226;37.908;2023-03-16T16:47:47;24.35;;;11.63;;
74939;SDS011;63505;45.226;37.908;2023-03-16T16:50:28;21.15;;;12.38;;